Flight Track Log - Related Links

Times and Time Zones

All times are in EDT time to prevent confusion due to time zone crossing. See the DAL2039 flight status page for this flight to view local times or setup timezone preferences in your user account.

Time Position Orientation Groundspeed Altitude Reporting Facility
EDT Latitude Longitude Course Direction KTS MPH feet Rate Location/Type
Mon 03:09:21 PM 38.8000 -77.0333 239° Southwest 210 242 2,300  Level Potomac TRACON
Mon 03:10:28 PM 38.7167 -77.0333 180° South 271 312 5,100 2,791 Climbing Potomac TRACON
Mon 03:11:00 PM 38.6249 -77.3963 236° Southwest  Level Estimated
Mon 03:12:00 PM 38.5630 -77.5280 239° Southwest  Level FlightAware Approximate
Mon 03:12:28 PM 38.6833 -77.2167 257° West 306 352 11,000  Level Potomac TRACON
Mon 03:13:00 PM 38.5010 -77.6594 239° Southwest  Level FlightAware Approximate
Mon 03:13:29 PM 38.6500 -77.3333 250° West 373 429 12,800  Level Potomac TRACON
Mon 03:14:46 PM 38.5961 -77.4831 245° Southwest 412 474 15,900 2,409 Climbing Washington Center
Mon 03:15:46 PM 38.5481 -77.6172 245° Southwest 417 480 18,300 2,380 Climbing Washington Center
Mon 03:16:47 PM 38.4958 -77.7536 244° Southwest 423 487 20,700 1,339 Climbing Washington Center
Mon 03:17:47 PM 38.4286 -77.8842 237° Southwest 428 493 21,000 992 Climbing Washington Center
Mon 03:18:48 PM 38.3594 -78.0119 235° Southwest 443 510 22,700 1,587 Climbing Washington Center
Mon 03:19:48 PM 38.2900 -78.1444 236° Southwest 454 522 24,200 1,169 Climbing Washington Center
Mon 03:20:46 PM 38.2181 -78.2822 236° Southwest 461 531 25,000 763 Climbing Washington Center
Mon 03:21:46 PM 38.1442 -78.4142 235° Southwest 466 536 25,700 1,438 Climbing Washington Center
Mon 03:22:47 PM 38.0678 -78.5617 237° Southwest 466 536 27,900 1,140 Climbing Washington Center
Mon 03:23:47 PM 37.9733 -78.6658 221° Southwest 459 528 28,000 645 Climbing Washington Center
Mon 03:24:48 PM 37.8747 -78.7697 220° Southwest 459 528 29,200 1,438 Climbing Washington Center
Mon 03:25:48 PM 37.7886 -78.8633 221° Southwest 459 528 30,900 1,700 Climbing Washington Center
Mon 03:26:48 PM 37.6919 -78.9642 220° Southwest 459 528 32,600 1,068 Climbing Washington Center
Mon 03:27:46 PM 37.6014 -79.0703 223° Southwest 459 528 33,000 356 Climbing Washington Center
Mon 03:28:46 PM 37.5181 -79.2078 233° Southwest 449 517 33,300 550 Climbing Washington Center
Mon 03:29:46 PM 37.4439 -79.3167 229° Southwest 461 531 34,100 893 Climbing Washington Center
Mon 03:30:47 PM 37.3647 -79.4461 232° Southwest 461 531 35,100 893 Climbing Washington Center
Mon 03:31:47 PM 37.2875 -79.5728 233° Southwest 461 531 35,900 450 Climbing Washington Center
Mon 03:32:47 PM 37.2056 -79.7119 234° Southwest 461 531 36,000 50 Climbing Washington Center
Mon 03:33:48 PM 37.1261 -79.8381 232° Southwest 461 531 36,000  Level Washington Center
Mon 03:35:19 PM 37.0064 -80.0336 233° Southwest 479 551 36,000  Level Atlanta Center
Mon 03:36:19 PM 36.9292 -80.1569 232° Southwest 473 544 36,000  Level Atlanta Center
Mon 03:37:19 PM 36.8494 -80.2828 232° Southwest 473 544 36,000  Level Atlanta Center
Mon 03:38:19 PM 36.7800 -80.3922 232° Southwest 473 544 36,000  Level Atlanta Center
Mon 03:39:19 PM 36.7022 -80.5150 232° Southwest 468 539 36,000  Level Atlanta Center
Mon 03:40:19 PM 36.6225 -80.6450 233° Southwest 448 516 36,000  Level Atlanta Center
Mon 03:41:19 PM 36.5444 -80.7647 231° Southwest 448 516 36,000  Level Atlanta Center
Mon 03:42:19 PM 36.4683 -80.8867 232° Southwest 454 522 36,000  Level Atlanta Center
Mon 03:43:19 PM 36.3881 -81.0108 231° Southwest 454 522 36,000  Level Atlanta Center
Mon 03:44:19 PM 36.3197 -81.1217 233° Southwest 454 522 36,000  Level Atlanta Center
Mon 03:45:19 PM 36.2414 -81.2456 232° Southwest 454 522 36,000  Level Atlanta Center
Mon 03:46:19 PM 36.1628 -81.3667 231° Southwest 454 522 36,000  Level Atlanta Center
Mon 03:47:19 PM 36.0858 -81.4847 231° Southwest 454 522 36,000  Level Atlanta Center
Mon 03:48:19 PM 36.0050 -81.6081 231° Southwest 454 522 36,000  Level Atlanta Center
Mon 03:49:19 PM 35.9258 -81.7283 231° Southwest 454 522 36,000  Level Atlanta Center
Mon 03:50:19 PM 35.8469 -81.8483 231° Southwest 454 522 36,000  Level Atlanta Center
Mon 03:51:19 PM 35.7611 -81.9608 227° Southwest 454 522 36,000  Level Atlanta Center
Mon 03:52:19 PM 35.6714 -82.0781 227° Southwest 460 529 36,000 -500 Level Atlanta Center
Mon 03:53:19 PM 35.5875 -82.1872 227° Southwest 454 522 35,000 -600 Descending Atlanta Center
Mon 03:54:19 PM 35.4994 -82.2964 225° Southwest 454 522 34,800 -1,000 Descending Atlanta Center
Mon 03:55:19 PM 35.4008 -82.4106 223° Southwest 449 517 33,000 -1,800 Descending Atlanta Center
Mon 03:56:19 PM 35.3061 -82.5169 223° Southwest 455 524 31,200 -1,550 Descending Atlanta Center
Mon 03:57:19 PM 35.2156 -82.6100 220° Southwest 462 532 29,900 -1,500 Descending Atlanta Center
Mon 03:58:19 PM 35.1228 -82.7183 224° Southwest 457 526 28,200 -1,550 Descending Atlanta Center
Mon 03:59:19 PM 35.0342 -82.8136 221° Southwest 451 519 26,800 -1,050 Descending Atlanta Center
Mon 04:00:19 PM 34.9453 -82.9111 222° Southwest 443 510 26,100 -800 Descending Atlanta Center
Mon 04:01:19 PM 34.8564 -83.0086 222° Southwest 433 498 25,200 -950 Descending Atlanta Center
Mon 04:02:19 PM 34.7675 -83.1031 221° Southwest 428 493 24,200 -600 Descending Atlanta Center
Mon 04:03:19 PM 34.6825 -83.2028 224° Southwest 433 498 24,000 -100 Descending Atlanta Center
Mon 04:04:19 PM 34.5975 -83.2919 221° Southwest 426 490 24,000 -50 Level Atlanta Center
Mon 04:05:19 PM 34.5167 -83.3783 221° Southwest 400 460 23,900 -800 Descending Atlanta Center
Mon 04:06:19 PM 34.4400 -83.4594 221° Southwest 379 436 22,400 -1,350 Descending Atlanta Center
Mon 04:07:19 PM 34.3756 -83.5328 223° Southwest 369 425 21,200 -1,450 Descending Atlanta Center
Mon 04:08:19 PM 34.3069 -83.6089 223° Southwest 350 403 19,500 -1,800 Descending Atlanta Center
Mon 04:09:19 PM 34.2383 -83.6794 220° Southwest 336 387 17,600 -1,900 Descending Atlanta Center
Mon 04:10:19 PM 34.1697 -83.7525 221° Southwest 331 381 15,700 -1,750 Descending Atlanta Center
Mon 04:11:19 PM 34.1050 -83.8231 222° Southwest 331 381 14,100 -850 Descending Atlanta Center
Mon 04:12:19 PM 34.0406 -83.8933 222° Southwest 331 381 14,000 -457 Descending Atlanta Center
Mon 04:12:51 PM 34.0000 -83.9333 219° Southwest 303 349 13,400 -1,395 Descending Atlanta TRACON
Mon 04:13:45 PM 33.9333 -83.9833 212° Southwest 304 350 12,000 -667 Descending Atlanta TRACON
Mon 04:14:57 PM 33.8500 -84.0500 214° Southwest 304 350 12,000  Level Atlanta TRACON
Mon 04:15:51 PM 33.7833 -84.1000 212° Southwest 304 350 12,000  Level Atlanta TRACON
Mon 04:16:51 PM 33.7333 -84.1667 228° Southwest 299 344 12,000  Level Atlanta TRACON
Mon 04:17:57 PM 33.7333 -84.2667 270° West 271 312 12,000 -1,000 Level Atlanta TRACON
Mon 04:18:57 PM 33.7333 -84.3667 270° West 273 314 9,900 -2,200 Descending Atlanta TRACON
Mon 04:19:57 PM 33.7333 -84.4500 270° West 262 302 7,600 -2,158 Descending Atlanta TRACON
Mon 04:20:51 PM 33.7333 -84.5167 270° West 245 282 5,800 -1,895 Descending Atlanta TRACON
Mon 04:21:51 PM 33.7333 -84.6000 270° West 245 282 4,000 -1,200 Descending Atlanta TRACON
Mon 04:22:51 PM 33.6833 -84.6333 209° Southwest 181 208 3,400 -550 Descending Atlanta TRACON
Mon 04:23:51 PM 33.6667 -84.5833 112° Southeast 178 205 2,900 -450 Descending Atlanta TRACON
Mon 04:24:51 PM 33.6500 -84.5167 107° East 182 209 2,500 -600 Descending Atlanta TRACON
Mon 04:25:51 PM 33.6500 -84.4667 90° East 142 163 1,700 -800 Descending Atlanta TRACON

Login

Don't have an account? Register now (free) for customized features, flight alerts, and more!